Songpan, China
Current Conditions -  °F | °C
As of 10:00 AM on Friday 21 Nov 2014 (Local Time) from ZUUU Reporting Station
Haze Haze  
Wind Chill: 54°   Ceiling: Unl
Heat Index: 54°   Visibility: 1mi
Dew Point: 50°   Wind: 0mph
Humidity: 88%   Direction: NA
Pressure: 30.12"   Gusts: NA
Location:  32.65°N, 103.57°E
Report Text: ZUUU 210200Z 00000MPS 1700 BR SCT040 12/10 Q1020 NOSIG
Loading
Personal Weather Stations






























Interactive Weather Map New forecast layout! Learn more

10-Day Weather Forecast

Advertisements
Track Severe Weather on mobile